sensor_id;sensor_type;location;lat;lon;timestamp;P1;durP1;ratioP1;P2;durP2;ratioP2
70920;SDS011;58572;48.110;19.838;2023-06-24T00:02:22;4.75;;;1.75;;
70920;SDS011;58572;48.110;19.838;2023-06-24T00:04:51;3.78;;;1.55;;
70920;SDS011;58572;48.110;19.838;2023-06-24T00:07:18;4.03;;;1.63;;
70920;SDS011;58572;48.110;19.838;2023-06-24T00:09:47;4.20;;;1.67;;
70920;SDS011;58572;48.110;19.838;2023-06-24T00:12:14;3.67;;;1.45;;
70920;SDS011;58572;48.110;19.838;2023-06-24T00:14:44;4.03;;;1.60;;
70920;SDS011;58572;48.110;19.838;2023-06-24T00:17:12;5.97;;;1.88;;
70920;SDS011;58572;48.110;19.838;2023-06-24T00:19:41;2.72;;;1.33;;
70920;SDS011;58572;48.110;19.838;2023-06-24T00:22:11;3.42;;;1.63;;
70920;SDS011;58572;48.110;19.838;2023-06-24T00:24:39;3.92;;;2.40;;
70920;SDS011;58572;48.110;19.838;2023-06-24T00:27:08;7.63;;;2.10;;
70920;SDS011;58572;48.110;19.838;2023-06-24T00:29:35;4.07;;;1.90;;
70920;SDS011;58572;48.110;19.838;2023-06-24T00:32:02;3.83;;;2.47;;
70920;SDS011;58572;48.110;19.838;2023-06-24T00:34:30;7.88;;;2.95;;
70920;SDS011;58572;48.110;19.838;2023-06-24T00:36:57;4.80;;;2.83;;
70920;SDS011;58572;48.110;19.838;2023-06-24T00:39:25;4.57;;;2.60;;
70920;SDS011;58572;48.110;19.838;2023-06-24T00:41:53;4.85;;;2.80;;
70920;SDS011;58572;48.110;19.838;2023-06-24T00:44:20;5.03;;;3.15;;
70920;SDS011;58572;48.110;19.838;2023-06-24T00:46:47;6.35;;;2.50;;
70920;SDS011;58572;48.110;19.838;2023-06-24T00:49:14;5.30;;;2.85;;
70920;SDS011;58572;48.110;19.838;2023-06-24T00:51:41;5.95;;;2.63;;
70920;SDS011;58572;48.110;19.838;2023-06-24T00:54:12;7.72;;;2.67;;
70920;SDS011;58572;48.110;19.838;2023-06-24T00:59:08;5.70;;;3.17;;
70920;SDS011;58572;48.110;19.838;2023-06-24T01:01:39;6.32;;;3.03;;
70920;SDS011;58572;48.110;19.838;2023-06-24T01:04:07;4.90;;;3.15;;
70920;SDS011;58572;48.110;19.838;2023-06-24T01:06:35;5.55;;;3.15;;
70920;SDS011;58572;48.110;19.838;2023-06-24T01:09:08;11.52;;;3.30;;
70920;SDS011;58572;48.110;19.838;2023-06-24T01:11:36;5.88;;;4.13;;
70920;SDS011;58572;48.110;19.838;2023-06-24T01:14:05;7.93;;;4.40;;
70920;SDS011;58572;48.110;19.838;2023-06-24T01:16:33;5.93;;;4.50;;
70920;SDS011;58572;48.110;19.838;2023-06-24T01:19:15;6.75;;;3.38;;
70920;SDS011;58572;48.110;19.838;2023-06-24T01:22:18;6.75;;;4.00;;
70920;SDS011;58572;48.110;19.838;2023-06-24T01:25:02;6.05;;;3.22;;
70920;SDS011;58572;48.110;19.838;2023-06-24T01:27:45;5.78;;;4.10;;
70920;SDS011;58572;48.110;19.838;2023-06-24T01:33:23;5.72;;;3.83;;
70920;SDS011;58572;48.110;19.838;2023-06-24T01:35:56;8.95;;;4.22;;
70920;SDS011;58572;48.110;19.838;2023-06-24T01:38:28;7.53;;;3.80;;
70920;SDS011;58572;48.110;19.838;2023-06-24T01:40:58;7.05;;;3.78;;
70920;SDS011;58572;48.110;19.838;2023-06-24T01:43:28;9.13;;;4.63;;
70920;SDS011;58572;48.110;19.838;2023-06-24T01:45:58;7.18;;;4.22;;
70920;SDS011;58572;48.110;19.838;2023-06-24T01:48:27;8.30;;;4.30;;
70920;SDS011;58572;48.110;19.838;2023-06-24T01:51:00;8.43;;;3.92;;
70920;SDS011;58572;48.110;19.838;2023-06-24T01:53:32;6.63;;;3.72;;
70920;SDS011;58572;48.110;19.838;2023-06-24T01:56:04;6.88;;;4.45;;
70920;SDS011;58572;48.110;19.838;2023-06-24T01:58:34;6.70;;;4.07;;
70920;SDS011;58572;48.110;19.838;2023-06-24T02:01:03;6.38;;;3.88;;
70920;SDS011;58572;48.110;19.838;2023-06-24T02:03:34;8.00;;;3.85;;
70920;SDS011;58572;48.110;19.838;2023-06-24T02:06:02;8.23;;;4.28;;
70920;SDS011;58572;48.110;19.838;2023-06-24T02:08:31;7.03;;;4.10;;
70920;SDS011;58572;48.110;19.838;2023-06-24T02:11:01;7.10;;;4.30;;
70920;SDS011;58572;48.110;19.838;2023-06-24T02:13:29;7.57;;;3.83;;
70920;SDS011;58572;48.110;19.838;2023-06-24T02:15:58;6.57;;;4.07;;
70920;SDS011;58572;48.110;19.838;2023-06-24T02:18:28;7.03;;;3.83;;
70920;SDS011;58572;48.110;19.838;2023-06-24T02:23:24;5.32;;;3.75;;
70920;SDS011;58572;48.110;19.838;2023-06-24T02:25:52;6.55;;;3.90;;
70920;SDS011;58572;48.110;19.838;2023-06-24T02:28:21;7.75;;;4.20;;
70920;SDS011;58572;48.110;19.838;2023-06-24T02:30:49;6.85;;;4.40;;
70920;SDS011;58572;48.110;19.838;2023-06-24T02:33:17;6.25;;;4.07;;
70920;SDS011;58572;48.110;19.838;2023-06-24T02:35:44;7.75;;;4.22;;
70920;SDS011;58572;48.110;19.838;2023-06-24T02:40:42;5.38;;;4.18;;
70920;SDS011;58572;48.110;19.838;2023-06-24T02:43:10;13.15;;;5.18;;
70920;SDS011;58572;48.110;19.838;2023-06-24T02:48:05;6.95;;;4.40;;
70920;SDS011;58572;48.110;19.838;2023-06-24T02:50:35;5.47;;;3.92;;
70920;SDS011;58572;48.110;19.838;2023-06-24T02:53:05;6.88;;;4.72;;
70920;SDS011;58572;48.110;19.838;2023-06-24T02:55:34;6.55;;;4.07;;
70920;SDS011;58572;48.110;19.838;2023-06-24T02:58:02;7.70;;;4.82;;
70920;SDS011;58572;48.110;19.838;2023-06-24T03:00:33;7.90;;;4.68;;
70920;SDS011;58572;48.110;19.838;2023-06-24T03:03:00;9.18;;;5.35;;
70920;SDS011;58572;48.110;19.838;2023-06-24T03:05:29;6.30;;;4.70;;
70920;SDS011;58572;48.110;19.838;2023-06-24T03:07:58;7.45;;;4.32;;
70920;SDS011;58572;48.110;19.838;2023-06-24T03:10:25;7.03;;;4.82;;
70920;SDS011;58572;48.110;19.838;2023-06-24T03:12:54;6.70;;;4.70;;
70920;SDS011;58572;48.110;19.838;2023-06-24T03:15:21;7.38;;;5.68;;
70920;SDS011;58572;48.110;19.838;2023-06-24T03:17:49;9.52;;;5.00;;
70920;SDS011;58572;48.110;19.838;2023-06-24T03:20:17;12.00;;;5.00;;
70920;SDS011;58572;48.110;19.838;2023-06-24T03:22:44;7.97;;;4.88;;
70920;SDS011;58572;48.110;19.838;2023-06-24T03:25:12;6.35;;;4.55;;
70920;SDS011;58572;48.110;19.838;2023-06-24T03:27:39;7.68;;;5.60;;
70920;SDS011;58572;48.110;19.838;2023-06-24T03:30:10;8.77;;;4.90;;
70920;SDS011;58572;48.110;19.838;2023-06-24T03:32:40;7.47;;;5.00;;
70920;SDS011;58572;48.110;19.838;2023-06-24T03:35:12;6.72;;;4.72;;
70920;SDS011;58572;48.110;19.838;2023-06-24T03:37:39;8.88;;;6.00;;
70920;SDS011;58572;48.110;19.838;2023-06-24T03:42:34;8.10;;;5.70;;
70920;SDS011;58572;48.110;19.838;2023-06-24T03:45:02;8.48;;;6.32;;
70920;SDS011;58572;48.110;19.838;2023-06-24T03:47:31;12.00;;;8.57;;
70920;SDS011;58572;48.110;19.838;2023-06-24T03:49:58;10.75;;;7.57;;
70920;SDS011;58572;48.110;19.838;2023-06-24T03:52:25;8.98;;;6.50;;
70920;SDS011;58572;48.110;19.838;2023-06-24T03:54:53;10.93;;;7.63;;
70920;SDS011;58572;48.110;19.838;2023-06-24T03:57:20;10.48;;;7.45;;
70920;SDS011;58572;48.110;19.838;2023-06-24T03:59:47;8.52;;;6.35;;
70920;SDS011;58572;48.110;19.838;2023-06-24T04:02:14;7.75;;;5.75;;
70920;SDS011;58572;48.110;19.838;2023-06-24T04:04:44;12.93;;;6.40;;
70920;SDS011;58572;48.110;19.838;2023-06-24T04:07:16;9.45;;;6.22;;
70920;SDS011;58572;48.110;19.838;2023-06-24T04:09:53;8.38;;;5.85;;
70920;SDS011;58572;48.110;19.838;2023-06-24T04:12:21;11.65;;;6.63;;
70920;SDS011;58572;48.110;19.838;2023-06-24T04:17:15;9.00;;;6.47;;
70920;SDS011;58572;48.110;19.838;2023-06-24T04:19:42;10.43;;;6.07;;
70920;SDS011;58572;48.110;19.838;2023-06-24T04:22:12;8.30;;;6.28;;
70920;SDS011;58572;48.110;19.838;2023-06-24T04:24:40;8.93;;;5.60;;
70920;SDS011;58572;48.110;19.838;2023-06-24T04:27:07;11.95;;;5.95;;
70920;SDS011;58572;48.110;19.838;2023-06-24T04:29:35;8.07;;;5.57;;
70920;SDS011;58572;48.110;19.838;2023-06-24T04:32:03;9.00;;;6.78;;
70920;SDS011;58572;48.110;19.838;2023-06-24T04:34:31;8.55;;;5.72;;
70920;SDS011;58572;48.110;19.838;2023-06-24T04:39:26;8.43;;;6.13;;
70920;SDS011;58572;48.110;19.838;2023-06-24T04:41:54;10.55;;;5.85;;
70920;SDS011;58572;48.110;19.838;2023-06-24T04:44:21;13.02;;;6.47;;
70920;SDS011;58572;48.110;19.838;2023-06-24T04:46:48;7.97;;;5.80;;
70920;SDS011;58572;48.110;19.838;2023-06-24T04:49:17;11.25;;;6.47;;
70920;SDS011;58572;48.110;19.838;2023-06-24T04:51:44;8.82;;;5.65;;
70920;SDS011;58572;48.110;19.838;2023-06-24T04:54:11;8.90;;;6.20;;
70920;SDS011;58572;48.110;19.838;2023-06-24T04:56:40;10.27;;;5.85;;
70920;SDS011;58572;48.110;19.838;2023-06-24T04:59:08;11.13;;;6.35;;
70920;SDS011;58572;48.110;19.838;2023-06-24T05:01:35;7.20;;;5.45;;
70920;SDS011;58572;48.110;19.838;2023-06-24T05:04:02;8.48;;;5.75;;
70920;SDS011;58572;48.110;19.838;2023-06-24T05:06:30;7.68;;;5.75;;
70920;SDS011;58572;48.110;19.838;2023-06-24T05:08:57;6.93;;;5.03;;
70920;SDS011;58572;48.110;19.838;2023-06-24T05:11:24;8.55;;;5.30;;
70920;SDS011;58572;48.110;19.838;2023-06-24T05:13:53;7.65;;;4.95;;
70920;SDS011;58572;48.110;19.838;2023-06-24T05:16:20;9.88;;;4.97;;
70920;SDS011;58572;48.110;19.838;2023-06-24T05:18:49;7.28;;;5.63;;
70920;SDS011;58572;48.110;19.838;2023-06-24T05:21:16;8.02;;;5.40;;
70920;SDS011;58572;48.110;19.838;2023-06-24T05:23:43;8.98;;;5.20;;
70920;SDS011;58572;48.110;19.838;2023-06-24T05:26:11;7.03;;;5.13;;
70920;SDS011;58572;48.110;19.838;2023-06-24T05:28:38;11.50;;;4.85;;
70920;SDS011;58572;48.110;19.838;2023-06-24T05:31:07;8.50;;;5.07;;
70920;SDS011;58572;48.110;19.838;2023-06-24T05:33:34;7.72;;;5.25;;
70920;SDS011;58572;48.110;19.838;2023-06-24T05:36:01;9.05;;;5.25;;
70920;SDS011;58572;48.110;19.838;2023-06-24T05:38:28;8.55;;;5.38;;
70920;SDS011;58572;48.110;19.838;2023-06-24T05:40:56;8.90;;;5.22;;
70920;SDS011;58572;48.110;19.838;2023-06-24T05:43:23;8.27;;;5.45;;
70920;SDS011;58572;48.110;19.838;2023-06-24T05:45:51;6.63;;;4.40;;
70920;SDS011;58572;48.110;19.838;2023-06-24T05:48:20;10.35;;;5.95;;
70920;SDS011;58572;48.110;19.838;2023-06-24T05:50:48;7.95;;;5.40;;
70920;SDS011;58572;48.110;19.838;2023-06-24T05:53:15;9.35;;;4.97;;
70920;SDS011;58572;48.110;19.838;2023-06-24T05:55:42;8.77;;;4.30;;
70920;SDS011;58572;48.110;19.838;2023-06-24T05:58:09;8.15;;;5.13;;
70920;SDS011;58572;48.110;19.838;2023-06-24T06:00:36;12.48;;;5.38;;
70920;SDS011;58572;48.110;19.838;2023-06-24T06:03:03;6.00;;;4.43;;
70920;SDS011;58572;48.110;19.838;2023-06-24T06:05:32;7.38;;;4.70;;
70920;SDS011;58572;48.110;19.838;2023-06-24T06:07:59;10.30;;;4.15;;
70920;SDS011;58572;48.110;19.838;2023-06-24T06:10:26;8.68;;;5.07;;
70920;SDS011;58572;48.110;19.838;2023-06-24T06:12:54;7.50;;;4.47;;
70920;SDS011;58572;48.110;19.838;2023-06-24T06:15:21;9.25;;;4.38;;
70920;SDS011;58572;48.110;19.838;2023-06-24T06:17:49;8.90;;;5.22;;
70920;SDS011;58572;48.110;19.838;2023-06-24T06:20:16;7.32;;;4.63;;
70920;SDS011;58572;48.110;19.838;2023-06-24T06:22:45;7.10;;;4.40;;
70920;SDS011;58572;48.110;19.838;2023-06-24T06:25:13;10.30;;;4.53;;
70920;SDS011;58572;48.110;19.838;2023-06-24T06:27:40;10.05;;;6.80;;
70920;SDS011;58572;48.110;19.838;2023-06-24T06:30:08;8.18;;;5.03;;
70920;SDS011;58572;48.110;19.838;2023-06-24T06:32:35;13.95;;;9.18;;
70920;SDS011;58572;48.110;19.838;2023-06-24T06:35:02;10.52;;;6.05;;
70920;SDS011;58572;48.110;19.838;2023-06-24T06:37:30;13.13;;;7.10;;
70920;SDS011;58572;48.110;19.838;2023-06-24T06:39:59;8.80;;;5.28;;
70920;SDS011;58572;48.110;19.838;2023-06-24T06:42:26;8.43;;;5.30;;
70920;SDS011;58572;48.110;19.838;2023-06-24T06:47:20;7.40;;;4.72;;
70920;SDS011;58572;48.110;19.838;2023-06-24T06:52:14;7.03;;;4.70;;
70920;SDS011;58572;48.110;19.838;2023-06-24T06:57:10;8.75;;;4.05;;
70920;SDS011;58572;48.110;19.838;2023-06-24T06:59:38;6.95;;;4.43;;
70920;SDS011;58572;48.110;19.838;2023-06-24T07:02:05;8.13;;;5.05;;
70920;SDS011;58572;48.110;19.838;2023-06-24T07:04:33;6.75;;;4.70;;
70920;SDS011;58572;48.110;19.838;2023-06-24T07:07:00;8.35;;;4.65;;
70920;SDS011;58572;48.110;19.838;2023-06-24T07:09:28;7.78;;;4.82;;
70920;SDS011;58572;48.110;19.838;2023-06-24T07:11:55;6.28;;;5.28;;
70920;SDS011;58572;48.110;19.838;2023-06-24T07:16:52;6.70;;;4.55;;
70920;SDS011;58572;48.110;19.838;2023-06-24T07:21:46;8.40;;;5.10;;
70920;SDS011;58572;48.110;19.838;2023-06-24T07:26:41;7.88;;;5.00;;
70920;SDS011;58572;48.110;19.838;2023-06-24T07:29:08;6.95;;;5.70;;
70920;SDS011;58572;48.110;19.838;2023-06-24T07:31:37;7.60;;;5.90;;
70920;SDS011;58572;48.110;19.838;2023-06-24T07:34:05;8.85;;;5.20;;
70920;SDS011;58572;48.110;19.838;2023-06-24T07:36:32;7.80;;;5.15;;
70920;SDS011;58572;48.110;19.838;2023-06-24T07:39:00;6.70;;;5.20;;
70920;SDS011;58572;48.110;19.838;2023-06-24T07:41:28;7.30;;;5.57;;
70920;SDS011;58572;48.110;19.838;2023-06-24T07:43:55;7.22;;;5.25;;
70920;SDS011;58572;48.110;19.838;2023-06-24T07:46:22;7.30;;;5.35;;
70920;SDS011;58572;48.110;19.838;2023-06-24T07:48:53;6.75;;;5.68;;
70920;SDS011;58572;48.110;19.838;2023-06-24T07:51:21;8.13;;;5.70;;
70920;SDS011;58572;48.110;19.838;2023-06-24T07:56:15;7.50;;;4.85;;
70920;SDS011;58572;48.110;19.838;2023-06-24T07:58:42;8.30;;;5.45;;
70920;SDS011;58572;48.110;19.838;2023-06-24T08:03:38;6.75;;;4.90;;
70920;SDS011;58572;48.110;19.838;2023-06-24T08:08:33;6.70;;;4.82;;
70920;SDS011;58572;48.110;19.838;2023-06-24T08:13:29;8.48;;;4.90;;
70920;SDS011;58572;48.110;19.838;2023-06-24T08:15:56;6.90;;;4.50;;
70920;SDS011;58572;48.110;19.838;2023-06-24T08:18:23;11.77;;;4.40;;
70920;SDS011;58572;48.110;19.838;2023-06-24T08:20:50;6.53;;;4.82;;
70920;SDS011;58572;48.110;19.838;2023-06-24T08:23:19;8.02;;;4.35;;
70920;SDS011;58572;48.110;19.838;2023-06-24T08:25:46;8.43;;;4.60;;
70920;SDS011;58572;48.110;19.838;2023-06-24T08:28:14;6.97;;;3.97;;
70920;SDS011;58572;48.110;19.838;2023-06-24T08:30:42;8.25;;;4.22;;
70920;SDS011;58572;48.110;19.838;2023-06-24T08:33:09;6.68;;;3.28;;
70920;SDS011;58572;48.110;19.838;2023-06-24T08:35:37;4.93;;;2.60;;
70920;SDS011;58572;48.110;19.838;2023-06-24T08:38:04;5.68;;;2.78;;
70920;SDS011;58572;48.110;19.838;2023-06-24T08:40:33;7.10;;;3.30;;
70920;SDS011;58572;48.110;19.838;2023-06-24T08:43:01;6.95;;;3.40;;
70920;SDS011;58572;48.110;19.838;2023-06-24T08:47:55;6.60;;;2.88;;
70920;SDS011;58572;48.110;19.838;2023-06-24T08:50:23;5.93;;;3.05;;
70920;SDS011;58572;48.110;19.838;2023-06-24T08:52:57;4.15;;;2.78;;
70920;SDS011;58572;48.110;19.838;2023-06-24T08:55:27;7.75;;;3.72;;
70920;SDS011;58572;48.110;19.838;2023-06-24T08:57:59;7.72;;;3.40;;
70920;SDS011;58572;48.110;19.838;2023-06-24T09:00:26;5.85;;;3.50;;
70920;SDS011;58572;48.110;19.838;2023-06-24T09:02:55;5.07;;;3.30;;
70920;SDS011;58572;48.110;19.838;2023-06-24T09:05:23;8.40;;;3.50;;
70920;SDS011;58572;48.110;19.838;2023-06-24T09:07:50;5.47;;;3.17;;
70920;SDS011;58572;48.110;19.838;2023-06-24T09:13:00;5.07;;;3.22;;
70920;SDS011;58572;48.110;19.838;2023-06-24T09:15:30;7.28;;;3.22;;
70920;SDS011;58572;48.110;19.838;2023-06-24T09:17:58;6.10;;;3.88;;
70920;SDS011;58572;48.110;19.838;2023-06-24T09:20:26;5.07;;;2.63;;
70920;SDS011;58572;48.110;19.838;2023-06-24T09:22:58;4.55;;;2.42;;
70920;SDS011;58572;48.110;19.838;2023-06-24T09:25:27;6.80;;;2.92;;
70920;SDS011;58572;48.110;19.838;2023-06-24T09:27:54;6.50;;;2.95;;
70920;SDS011;58572;48.110;19.838;2023-06-24T09:30:26;5.43;;;2.70;;
70920;SDS011;58572;48.110;19.838;2023-06-24T09:32:55;7.13;;;2.95;;
70920;SDS011;58572;48.110;19.838;2023-06-24T09:35:23;4.10;;;2.80;;
70920;SDS011;58572;48.110;19.838;2023-06-24T09:37:51;5.53;;;3.00;;
70920;SDS011;58572;48.110;19.838;2023-06-24T09:40:20;6.18;;;2.90;;
70920;SDS011;58572;48.110;19.838;2023-06-24T09:42:51;4.45;;;2.40;;
70920;SDS011;58572;48.110;19.838;2023-06-24T09:45:21;6.60;;;2.22;;
70920;SDS011;58572;48.110;19.838;2023-06-24T09:47:51;5.28;;;2.10;;
70920;SDS011;58572;48.110;19.838;2023-06-24T09:50:21;4.00;;;2.10;;
70920;SDS011;58572;48.110;19.838;2023-06-24T09:52:49;4.97;;;2.40;;
70920;SDS011;58572;48.110;19.838;2023-06-24T09:55:17;3.25;;;1.98;;
70920;SDS011;58572;48.110;19.838;2023-06-24T09:57:45;5.40;;;2.60;;
70920;SDS011;58572;48.110;19.838;2023-06-24T10:00:16;3.75;;;2.42;;
70920;SDS011;58572;48.110;19.838;2023-06-24T10:05:17;5.05;;;3.00;;
70920;SDS011;58572;48.110;19.838;2023-06-24T10:07:44;5.82;;;3.70;;
70920;SDS011;58572;48.110;19.838;2023-06-24T10:10:13;5.25;;;2.35;;
70920;SDS011;58572;48.110;19.838;2023-06-24T10:12:40;5.38;;;2.75;;
70920;SDS011;58572;48.110;19.838;2023-06-24T10:15:09;5.68;;;2.60;;
70920;SDS011;58572;48.110;19.838;2023-06-24T10:17:37;4.47;;;2.15;;
70920;SDS011;58572;48.110;19.838;2023-06-24T10:20:05;5.47;;;2.83;;
70920;SDS011;58572;48.110;19.838;2023-06-24T10:22:35;4.82;;;2.63;;
70920;SDS011;58572;48.110;19.838;2023-06-24T10:25:05;5.68;;;2.75;;
70920;SDS011;58572;48.110;19.838;2023-06-24T10:27:38;6.38;;;2.60;;
70920;SDS011;58572;48.110;19.838;2023-06-24T10:30:08;5.60;;;2.53;;
70920;SDS011;58572;48.110;19.838;2023-06-24T10:32:42;6.25;;;2.60;;
70920;SDS011;58572;48.110;19.838;2023-06-24T10:37:55;4.43;;;3.00;;
70920;SDS011;58572;48.110;19.838;2023-06-24T10:45:55;5.50;;;2.50;;
70920;SDS011;58572;48.110;19.838;2023-06-24T10:48:24;4.60;;;2.30;;
70920;SDS011;58572;48.110;19.838;2023-06-24T10:50:52;4.03;;;2.15;;
70920;SDS011;58572;48.110;19.838;2023-06-24T10:53:21;5.85;;;2.30;;
70920;SDS011;58572;48.110;19.838;2023-06-24T10:55:48;5.35;;;2.38;;
70920;SDS011;58572;48.110;19.838;2023-06-24T10:58:16;5.10;;;2.33;;
70920;SDS011;58572;48.110;19.838;2023-06-24T11:00:43;7.07;;;2.55;;
70920;SDS011;58572;48.110;19.838;2023-06-24T11:03:12;6.35;;;2.70;;
70920;SDS011;58572;48.110;19.838;2023-06-24T11:05:41;3.63;;;2.20;;
70920;SDS011;58572;48.110;19.838;2023-06-24T11:08:09;5.75;;;2.83;;
70920;SDS011;58572;48.110;19.838;2023-06-24T11:10:44;5.30;;;2.20;;
70920;SDS011;58572;48.110;19.838;2023-06-24T11:13:12;5.13;;;2.10;;
70920;SDS011;58572;48.110;19.838;2023-06-24T11:15:39;5.65;;;2.65;;
70920;SDS011;58572;48.110;19.838;2023-06-24T11:18:08;3.67;;;2.45;;
70920;SDS011;58572;48.110;19.838;2023-06-24T11:20:36;3.88;;;2.50;;
70920;SDS011;58572;48.110;19.838;2023-06-24T11:23:06;5.07;;;2.45;;
70920;SDS011;58572;48.110;19.838;2023-06-24T11:25:38;4.60;;;2.40;;
70920;SDS011;58572;48.110;19.838;2023-06-24T11:28:14;3.90;;;2.13;;
70920;SDS011;58572;48.110;19.838;2023-06-24T11:30:42;4.05;;;2.03;;
70920;SDS011;58572;48.110;19.838;2023-06-24T11:33:09;6.47;;;2.03;;
70920;SDS011;58572;48.110;19.838;2023-06-24T11:35:36;5.20;;;2.03;;
70920;SDS011;58572;48.110;19.838;2023-06-24T11:38:04;4.07;;;2.10;;
70920;SDS011;58572;48.110;19.838;2023-06-24T11:43:00;6.90;;;2.13;;
70920;SDS011;58572;48.110;19.838;2023-06-24T11:45:29;3.63;;;2.05;;
70920;SDS011;58572;48.110;19.838;2023-06-24T11:48:01;6.45;;;2.13;;
70920;SDS011;58572;48.110;19.838;2023-06-24T11:50:32;3.75;;;2.00;;
70920;SDS011;58572;48.110;19.838;2023-06-24T11:55:27;5.40;;;2.25;;
70920;SDS011;58572;48.110;19.838;2023-06-24T11:57:55;5.10;;;1.90;;
70920;SDS011;58572;48.110;19.838;2023-06-24T12:00:25;4.38;;;2.08;;
70920;SDS011;58572;48.110;19.838;2023-06-24T12:02:55;7.97;;;2.35;;
70920;SDS011;58572;48.110;19.838;2023-06-24T12:05:24;6.50;;;2.10;;
70920;SDS011;58572;48.110;19.838;2023-06-24T12:08:00;4.38;;;2.20;;
70920;SDS011;58572;48.110;19.838;2023-06-24T12:10:29;6.05;;;2.10;;
70920;SDS011;58572;48.110;19.838;2023-06-24T12:12:58;8.02;;;2.30;;
70920;SDS011;58572;48.110;19.838;2023-06-24T12:15:26;9.00;;;2.03;;
70920;SDS011;58572;48.110;19.838;2023-06-24T12:17:55;4.97;;;2.20;;
70920;SDS011;58572;48.110;19.838;2023-06-24T12:20:23;3.75;;;2.08;;
70920;SDS011;58572;48.110;19.838;2023-06-24T12:22:51;4.65;;;2.30;;
70920;SDS011;58572;48.110;19.838;2023-06-24T12:25:19;5.70;;;2.30;;
70920;SDS011;58572;48.110;19.838;2023-06-24T12:30:13;4.80;;;1.65;;
70920;SDS011;58572;48.110;19.838;2023-06-24T12:32:41;4.60;;;1.92;;
70920;SDS011;58572;48.110;19.838;2023-06-24T12:35:10;5.75;;;2.25;;
70920;SDS011;58572;48.110;19.838;2023-06-24T12:37:38;4.78;;;1.90;;
70920;SDS011;58572;48.110;19.838;2023-06-24T12:40:05;6.97;;;1.85;;
70920;SDS011;58572;48.110;19.838;2023-06-24T12:42:34;5.18;;;2.30;;
70920;SDS011;58572;48.110;19.838;2023-06-24T12:45:01;4.25;;;1.90;;
70920;SDS011;58572;48.110;19.838;2023-06-24T12:47:28;5.22;;;2.03;;
70920;SDS011;58572;48.110;19.838;2023-06-24T12:52:23;5.05;;;2.17;;
70920;SDS011;58572;48.110;19.838;2023-06-24T12:54:51;4.18;;;2.08;;
70920;SDS011;58572;48.110;19.838;2023-06-24T12:59:45;6.82;;;2.00;;
70920;SDS011;58572;48.110;19.838;2023-06-24T13:02:12;4.03;;;2.22;;
70920;SDS011;58572;48.110;19.838;2023-06-24T13:04:39;5.90;;;2.08;;
70920;SDS011;58572;48.110;19.838;2023-06-24T13:07:07;7.10;;;1.90;;
70920;SDS011;58572;48.110;19.838;2023-06-24T13:09:36;7.40;;;2.25;;
70920;SDS011;58572;48.110;19.838;2023-06-24T13:12:04;6.03;;;2.10;;
70920;SDS011;58572;48.110;19.838;2023-06-24T13:14:33;4.03;;;1.95;;
70920;SDS011;58572;48.110;19.838;2023-06-24T13:17:01;13.75;;;2.20;;
70920;SDS011;58572;48.110;19.838;2023-06-24T13:19:28;7.13;;;2.45;;
70920;SDS011;58572;48.110;19.838;2023-06-24T13:21:55;10.75;;;2.63;;
70920;SDS011;58572;48.110;19.838;2023-06-24T13:24:23;3.92;;;1.90;;
70920;SDS011;58572;48.110;19.838;2023-06-24T13:26:53;5.70;;;2.47;;
70920;SDS011;58572;48.110;19.838;2023-06-24T13:29:20;9.45;;;1.90;;
70920;SDS011;58572;48.110;19.838;2023-06-24T13:31:48;4.78;;;1.70;;
70920;SDS011;58572;48.110;19.838;2023-06-24T13:36:42;6.60;;;2.10;;
70920;SDS011;58572;48.110;19.838;2023-06-24T13:41:37;4.03;;;1.98;;
70920;SDS011;58572;48.110;19.838;2023-06-24T13:44:06;6.50;;;1.98;;
70920;SDS011;58572;48.110;19.838;2023-06-24T13:46:34;5.72;;;1.83;;
70920;SDS011;58572;48.110;19.838;2023-06-24T13:49:04;10.75;;;1.90;;
70920;SDS011;58572;48.110;19.838;2023-06-24T13:51:31;4.72;;;2.08;;
70920;SDS011;58572;48.110;19.838;2023-06-24T13:53:58;5.03;;;1.77;;
70920;SDS011;58572;48.110;19.838;2023-06-24T13:56:26;7.15;;;1.80;;
70920;SDS011;58572;48.110;19.838;2023-06-24T13:58:54;4.95;;;1.90;;
70920;SDS011;58572;48.110;19.838;2023-06-24T14:01:23;5.97;;;1.90;;
70920;SDS011;58572;48.110;19.838;2023-06-24T14:03:50;8.43;;;3.03;;
70920;SDS011;58572;48.110;19.838;2023-06-24T14:06:18;6.82;;;2.15;;
70920;SDS011;58572;48.110;19.838;2023-06-24T14:08:46;5.43;;;1.77;;
70920;SDS011;58572;48.110;19.838;2023-06-24T14:11:14;6.03;;;2.45;;
70920;SDS011;58572;48.110;19.838;2023-06-24T14:13:42;10.10;;;2.20;;
70920;SDS011;58572;48.110;19.838;2023-06-24T14:16:10;7.68;;;2.03;;
70920;SDS011;58572;48.110;19.838;2023-06-24T14:18:39;4.45;;;1.80;;
70920;SDS011;58572;48.110;19.838;2023-06-24T14:21:07;5.85;;;2.20;;
70920;SDS011;58572;48.110;19.838;2023-06-24T14:23:35;8.25;;;2.30;;
70920;SDS011;58572;48.110;19.838;2023-06-24T14:26:03;4.03;;;1.80;;
70920;SDS011;58572;48.110;19.838;2023-06-24T14:28:30;4.13;;;1.80;;
70920;SDS011;58572;48.110;19.838;2023-06-24T14:30:58;7.05;;;2.28;;
70920;SDS011;58572;48.110;19.838;2023-06-24T14:33:25;8.23;;;1.80;;
70920;SDS011;58572;48.110;19.838;2023-06-24T14:35:54;7.25;;;2.08;;
70920;SDS011;58572;48.110;19.838;2023-06-24T14:38:21;7.43;;;1.80;;
70920;SDS011;58572;48.110;19.838;2023-06-24T14:43:15;6.90;;;2.22;;
70920;SDS011;58572;48.110;19.838;2023-06-24T14:45:44;7.85;;;2.17;;
70920;SDS011;58572;48.110;19.838;2023-06-24T14:48:12;7.10;;;2.10;;
70920;SDS011;58572;48.110;19.838;2023-06-24T14:50:39;6.63;;;1.88;;
70920;SDS011;58572;48.110;19.838;2023-06-24T14:53:08;5.45;;;1.75;;
70920;SDS011;58572;48.110;19.838;2023-06-24T14:55:36;6.00;;;1.80;;
70920;SDS011;58572;48.110;19.838;2023-06-24T14:58:03;7.85;;;2.25;;
70920;SDS011;58572;48.110;19.838;2023-06-24T15:02:57;6.90;;;2.08;;
70920;SDS011;58572;48.110;19.838;2023-06-24T15:05:24;7.63;;;1.92;;
70920;SDS011;58572;48.110;19.838;2023-06-24T15:10:19;7.45;;;1.90;;
70920;SDS011;58572;48.110;19.838;2023-06-24T15:12:47;4.63;;;1.83;;
70920;SDS011;58572;48.110;19.838;2023-06-24T15:15:14;7.13;;;2.10;;
70920;SDS011;58572;48.110;19.838;2023-06-24T15:17:42;11.55;;;2.10;;
70920;SDS011;58572;48.110;19.838;2023-06-24T15:20:10;8.02;;;1.95;;
70920;SDS011;58572;48.110;19.838;2023-06-24T15:22:38;8.55;;;2.00;;
70920;SDS011;58572;48.110;19.838;2023-06-24T15:25:06;7.93;;;2.00;;
70920;SDS011;58572;48.110;19.838;2023-06-24T15:27:35;6.80;;;2.35;;
70920;SDS011;58572;48.110;19.838;2023-06-24T15:30:03;6.03;;;1.92;;
70920;SDS011;58572;48.110;19.838;2023-06-24T15:32:31;5.07;;;2.03;;
70920;SDS011;58572;48.110;19.838;2023-06-24T15:35:01;6.40;;;1.70;;
70920;SDS011;58572;48.110;19.838;2023-06-24T15:37:28;6.40;;;2.22;;
70920;SDS011;58572;48.110;19.838;2023-06-24T15:42:22;5.00;;;2.08;;
70920;SDS011;58572;48.110;19.838;2023-06-24T15:44:51;6.40;;;2.28;;
70920;SDS011;58572;48.110;19.838;2023-06-24T15:47:18;4.07;;;1.95;;
70920;SDS011;58572;48.110;19.838;2023-06-24T15:49:45;4.80;;;2.08;;
70920;SDS011;58572;48.110;19.838;2023-06-24T15:52:13;3.13;;;1.20;;
70920;SDS011;58572;48.110;19.838;2023-06-24T15:54:40;3.40;;;1.10;;
70920;SDS011;58572;48.110;19.838;2023-06-24T15:57:07;2.67;;;1.70;;
70920;SDS011;58572;48.110;19.838;2023-06-24T15:59:35;2.28;;;1.10;;
70920;SDS011;58572;48.110;19.838;2023-06-24T16:04:30;3.38;;;1.27;;
70920;SDS011;58572;48.110;19.838;2023-06-24T16:06:58;2.85;;;0.98;;
70920;SDS011;58572;48.110;19.838;2023-06-24T16:11:53;3.95;;;1.42;;
70920;SDS011;58572;48.110;19.838;2023-06-24T16:16:48;3.10;;;1.38;;